Flight Track Log - Related Links

Times and Time Zones

All times are in EDT time to prevent confusion due to time zone crossing. See the KAP644 flight status page for this flight to view local times or setup timezone preferences in your user account.

Time Position Orientation Groundspeed Altitude Reporting Facility
EDT Latitude Longitude Course Direction KTS MPH feet Rate Location/Type
Fri 12:40:12 PM 42.3667 -70.9833 144° Southeast 105 121 500  Level KA90
Fri 12:41:18 PM 42.3333 -70.9500 144° Southeast 119 137 1,700 952 Climbing KA90
Fri 12:42:18 PM 42.3167 -70.9167 124° Southeast 113 130 2,500 750 Climbing KA90
Fri 12:43:18 PM 42.3000 -70.8833 124° Southeast 116 133 3,200 700 Climbing KA90
Fri 12:44:18 PM 42.2667 -70.8500 143° Southeast 120 138 3,900 650 Climbing KA90
Fri 12:45:18 PM 42.2333 -70.8500 180° South 144 166 4,500 550 Climbing KA90
Fri 12:46:18 PM 42.2000 -70.8333 160° South 151 174 5,000 250 Climbing KA90
Fri 12:47:18 PM 42.1500 -70.8333 180° South 177 204 5,000  Level KA90
Fri 12:49:00 PM 42.0827 -70.8136 160° South  Level Estimated
Fri 12:56:00 PM 41.8025 -70.7647 161° South  Level FlightAware Approximate
Fri 12:57:00 PM 41.7641 -70.7473 161° South  Level FlightAware Approximate
Fri 12:58:00 PM 41.7257 -70.7305 164° South  Level FlightAware Approximate
Fri 12:59:00 PM 41.6867 -70.7158 164° South  Level FlightAware Approximate
Fri 01:00:00 PM 41.6477 -70.7012 164° South  Level FlightAware Approximate
Fri 01:01:00 PM 41.6087 -70.6866 164° South  Level FlightAware Approximate
Fri 01:02:00 PM 41.5697 -70.6720 164° South  Level FlightAware Approximate
Fri 01:03:00 PM 41.5308 -70.6573 164° South  Level FlightAware Approximate
Fri 01:04:00 PM 41.4918 -70.6427 164° South  Level FlightAware Approximate
Fri 01:05:00 PM 41.4529 -70.6278 163° South  Level FlightAware Approximate
Fri 01:06:00 PM 41.4141 -70.6123 163° South  Level FlightAware Approximate
Fri 01:07:00 PM 41.3934 -70.6139 163° South  Level Estimated
Fri 01:08:00 PM 41.3934 -70.6139 163° South  Level Estimated
Fri 01:09:00 PM 41.3934 -70.6139 163° South  Level Estimated
Fri 01:10:00 PM 41.3934 -70.6139 163° South  Level Estimated
Fri 01:11:00 PM 41.3934 -70.6139 163° South  Level Estimated

Login

Don't have an account? Register now (free) for customized features, flight alerts, and more!